Time;durP1;ratioP1;P1;durP2;ratioP2;P2;SDS_P1;SDS_P2;PMS_P1;PMS_P2;Temp;Humidity;BMP_temperature;BMP_pressure;BME280_temperature;BME280_humidity;BME280_pressure;Samples;Min_cycle;Max_cycle;Signal;HPM_P1;HPM_P2
2023/11/18 00:01:19;;;;;;;13.10;6.72;;;8.70;99.90;;;;;;5076378;28;20020;-73
2023/11/18 00:03:44;;;;;;;24.05;8.70;;;8.70;99.90;;;;;;5078730;28;20122;-72
2023/11/18 00:06:10;;;;;;;45.50;19.98;;;8.70;99.90;;;;;;5073835;28;20444;-72
2023/11/18 00:08:35;;;;;;;22.10;9.57;;;8.60;99.90;;;;;;5079337;28;20077;-73
2023/11/18 00:11:01;;;;;;;16.83;9.30;;;8.40;99.90;;;;;;5079407;28;20116;-73
2023/11/18 00:13:29;;;;;;;15.15;7.55;;;8.30;99.90;;;;;;5077061;28;20130;-73
2023/11/18 00:15:55;;;;;;;11.82;6.82;;;8.40;99.90;;;;;;5082851;28;20447;-73
2023/11/18 00:18:21;;;;;;;12.38;6.22;;;8.40;99.90;;;;;;5076842;28;20033;-72
2023/11/18 00:20:50;;;;;;;12.07;6.90;;;8.40;99.90;;;;;;5077607;28;20020;-72
2023/11/18 00:23:17;;;;;;;16.75;7.30;;;8.30;99.90;;;;;;5072017;28;20035;-72
2023/11/18 00:25:45;;;;;;;14.95;8.52;;;8.30;99.90;;;;;;5072841;28;20474;-72
2023/11/18 00:28:11;;;;;;;16.90;8.65;;;8.30;99.90;;;;;;5072369;28;20036;-72
2023/11/18 00:30:37;;;;;;;17.02;7.82;;;8.30;99.90;;;;;;5068486;28;20067;-73
2023/11/18 00:33:02;;;;;;;14.48;6.47;;;8.40;99.90;;;;;;5078517;28;20096;-73
2023/11/18 00:35:31;;;;;;;14.63;7.63;;;8.30;99.90;;;;;;5072021;28;20150;-73
2023/11/18 00:37:58;;;;;;;15.30;8.73;;;8.30;99.90;;;;;;5082407;28;20020;-73
2023/11/18 00:40:24;;;;;;;18.30;8.45;;;8.30;99.90;;;;;;5073784;28;20469;-73
2023/11/18 00:42:52;;;;;;;17.20;7.95;;;8.40;99.90;;;;;;5077050;28;20521;-73
2023/11/18 00:45:18;;;;;;;12.02;6.28;;;8.50;99.90;;;;;;5080843;28;20024;-73
2023/11/18 00:47:44;;;;;;;11.95;6.22;;;8.40;99.90;;;;;;5076502;22;20053;-73
2023/11/18 00:50:09;;;;;;;9.18;5.65;;;8.30;99.90;;;;;;5022919;28;20029;-73
2023/11/18 00:52:37;;;;;;;9.15;5.32;;;8.20;99.90;;;;;;5019022;28;20496;-73
2023/11/18 00:55:03;;;;;;;10.90;5.38;;;8.20;99.90;;;;;;5026116;28;20029;-72
2023/11/18 00:57:29;;;;;;;10.23;5.43;;;8.20;99.90;;;;;;5026241;28;20084;-73
2023/11/18 00:59:54;;;;;;;10.25;5.55;;;8.00;99.90;;;;;;5022285;28;20033;-73
2023/11/18 01:02:20;;;;;;;8.73;5.30;;;8.00;99.90;;;;;;5018285;28;20108;-73
2023/11/18 01:04:48;;;;;;;7.65;5.47;;;7.90;99.90;;;;;;5020757;28;20347;-73
2023/11/18 01:07:16;;;;;;;7.72;4.90;;;7.90;99.90;;;;;;5021612;28;20324;-73
2023/11/18 01:09:45;;;;;;;;;;;7.90;99.90;;;;;;5025707;28;20033;-73
2023/11/18 01:12:13;;;;;;;7.95;4.80;;;7.90;99.90;;;;;;5021121;28;20342;-73
2023/11/18 01:14:39;;;;;;;11.00;5.13;;;7.90;99.90;;;;;;5024542;28;20171;-73
2023/11/18 01:17:11;;;;;;;10.02;5.68;;;7.90;99.90;;;;;;5015219;28;21196;-73
2023/11/18 01:19:37;;;;;;;9.05;4.90;;;7.90;99.90;;;;;;5019198;28;20035;-72
2023/11/18 01:22:06;;;;;;;8.90;4.60;;;7.90;99.90;;;;;;5023361;28;20537;-72
2023/11/18 01:24:33;;;;;;;15.65;4.80;;;7.90;99.90;;;;;;5024860;28;20029;-73
2023/11/18 01:27:01;;;;;;;6.88;4.70;;;7.90;99.90;;;;;;5021395;28;20376;-73
2023/11/18 01:29:27;;;;;;;14.63;5.32;;;7.80;99.90;;;;;;5020566;28;20053;-72
2023/11/18 01:31:55;;;;;;;11.13;4.65;;;7.80;99.90;;;;;;5016954;28;20025;-72
2023/11/18 01:34:23;;;;;;;10.27;5.57;;;7.80;99.90;;;;;;5016983;28;20116;-72
2023/11/18 01:36:50;;;;;;;8.25;5.53;;;7.70;99.90;;;;;;5021097;28;20042;-72
2023/11/18 01:39:17;;;;;;;9.68;5.40;;;7.80;99.90;;;;;;5020664;28;20124;-73
2023/11/18 01:41:46;;;;;;;12.95;5.25;;;7.70;99.90;;;;;;5017549;28;20488;-72
2023/11/18 01:44:13;;;;;;;10.15;5.47;;;7.70;99.90;;;;;;5017754;28;20042;-72
2023/11/18 01:46:44;;;;;;;9.02;5.03;;;7.70;99.90;;;;;;5018637;28;20065;-72
2023/11/18 01:49:11;;;;;;;8.25;4.82;;;7.80;99.90;;;;;;5021377;28;20045;-72
2023/11/18 01:51:36;;;;;;;9.90;4.65;;;7.80;99.90;;;;;;5014561;28;20030;-72
2023/11/18 01:54:05;;;;;;;15.70;5.07;;;7.90;99.90;;;;;;5016184;28;20360;-72
2023/11/18 01:56:32;;;;;;;15.45;5.47;;;7.90;99.90;;;;;;5031561;28;20092;-72
2023/11/18 01:58:58;;;;;;;13.88;5.60;;;7.90;99.90;;;;;;5026351;28;20024;-72
2023/11/18 02:01:28;;;;;;;10.90;5.90;;;8.00;99.90;;;;;;5016101;28;20491;-72
2023/11/18 02:03:54;;;;;;;12.02;5.53;;;8.00;99.90;;;;;;5022711;28;20038;-72
2023/11/18 02:06:21;;;;;;;12.15;6.82;;;8.00;99.90;;;;;;5026290;28;20055;-72
2023/11/18 02:08:49;;;;;;;12.02;5.88;;;8.00;99.90;;;;;;5014533;28;20030;-73
2023/11/18 02:11:27;;;;;;;11.50;6.20;;;8.00;99.90;;;;;;5014896;28;20037;-72
2023/11/18 02:14:02;;;;;;;12.52;7.03;;;7.90;99.90;;;;;;5027936;28;20091;-72
2023/11/18 02:16:28;;;;;;;27.15;11.50;;;7.80;99.90;;;;;;5021419;28;20025;-73
2023/11/18 02:18:54;;;;;;;22.95;12.68;;;7.80;99.90;;;;;;5015453;28;20029;-73
2023/11/18 02:21:23;;;;;;;23.60;12.82;;;7.70;99.90;;;;;;5018841;28;20040;-73
2023/11/18 02:23:49;;;;;;;33.90;14.82;;;7.90;99.90;;;;;;5017339;28;20041;-72
2023/11/18 02:26:25;;;;;;;30.33;14.80;;;7.90;99.90;;;;;;5037780;28;20062;-72
2023/11/18 02:28:53;;;;;;;27.23;15.05;;;7.90;99.90;;;;;;5019872;28;20021;-73
2023/11/18 02:31:26;;;;;;;32.42;16.58;;;8.00;99.90;;;;;;5015731;28;20148;-72
2023/11/18 02:34:08;;;;;;;30.33;15.77;;;8.20;99.90;;;;;;5015768;28;20476;-72
2023/11/18 02:36:41;;;;;;;28.73;15.23;;;8.30;99.90;;;;;;5015559;28;20278;-72
2023/11/18 02:39:31;;;;;;;26.73;14.73;;;8.40;99.90;;;;;;5019109;28;20519;-72
2023/11/18 02:42:00;;;;;;;28.25;14.60;;;8.40;99.90;;;;;;5013969;28;20780;-73
2023/11/18 02:44:27;;;;;;;29.55;15.02;;;8.40;99.90;;;;;;5015232;28;20022;-73
2023/11/18 02:46:53;;;;;;;31.73;15.70;;;8.40;99.90;;;;;;5024905;28;20029;-73
2023/11/18 02:49:18;;;;;;;29.30;16.08;;;8.50;99.90;;;;;;5019291;28;20307;-72
2023/11/18 02:51:47;;;;;;;33.10;17.15;;;8.60;99.90;;;;;;5032344;28;20045;-72
2023/11/18 02:54:16;;;;;;;32.92;16.67;;;8.70;99.90;;;;;;5015478;28;20038;-73
2023/11/18 02:56:44;;;;;;;33.97;16.80;;;8.70;99.90;;;;;;5022824;28;20091;-73
2023/11/18 02:59:10;;;;;;;;;;;8.70;99.90;;;;;;5021246;28;20100;-73
2023/11/18 03:01:35;;;;;;;30.23;15.82;;;8.70;99.90;;;;;;5016912;28;20004;-72
2023/11/18 03:04:02;;;;;;;33.15;17.02;;;8.70;99.90;;;;;;5019425;28;20042;-72
2023/11/18 03:06:27;;;;;;;32.85;17.55;;;8.70;99.90;;;;;;5018729;28;20030;-73
2023/11/18 03:08:53;;;;;;;34.13;18.40;;;8.80;99.90;;;;;;5022551;28;20044;-72
2023/11/18 03:11:20;;;;;;;36.45;18.33;;;8.70;99.90;;;;;;5018142;28;20128;-72
2023/11/18 03:13:48;;;;;;;34.42;18.27;;;8.70;99.90;;;;;;5035510;28;20033;-72
2023/11/18 03:16:14;;;;;;;38.53;19.52;;;8.60;99.90;;;;;;5021241;28;20403;-72
2023/11/18 03:18:40;;;;;;;42.13;19.95;;;8.60;99.90;;;;;;5019425;28;20036;-72
2023/11/18 03:21:13;;;;;;;35.47;19.10;;;8.70;99.90;;;;;;5015853;28;20580;-72
2023/11/18 03:23:41;;;;;;;34.53;18.00;;;8.70;99.90;;;;;;5018632;28;20026;-73
2023/11/18 03:26:08;;;;;;;43.78;18.60;;;8.70;99.90;;;;;;5017728;28;20036;-72
2023/11/18 03:28:36;;;;;;;31.02;16.70;;;8.80;99.90;;;;;;5019754;28;20410;-72
2023/11/18 03:31:05;;;;;;;35.25;18.35;;;8.90;99.90;;;;;;5017980;28;20037;-73
2023/11/18 03:33:30;;;;;;;33.55;17.40;;;8.80;99.90;;;;;;5016920;28;20750;-73
2023/11/18 03:35:56;;;;;;;34.35;18.70;;;8.70;99.90;;;;;;5021264;28;20044;-72
2023/11/18 03:38:22;;;;;;;33.58;18.15;;;8.70;99.90;;;;;;5018728;28;20140;-72
2023/11/18 03:40:48;;;;;;;38.35;20.27;;;8.50;99.90;;;;;;5017366;28;20025;-73
2023/11/18 03:43:13;;;;;;;35.80;18.95;;;8.60;99.90;;;;;;5023219;28;20524;-73
2023/11/18 03:45:40;;;;;;;41.58;21.23;;;8.60;99.90;;;;;;5012717;28;20508;-72
2023/11/18 03:48:06;;;;;;;39.00;20.52;;;8.60;99.90;;;;;;5020496;28;20037;-72
2023/11/18 03:50:35;;;;;;;37.00;19.92;;;8.70;99.90;;;;;;5012674;28;20176;-72
2023/11/18 03:53:04;;;;;;;43.72;21.40;;;8.70;99.90;;;;;;5013083;28;20026;-73
2023/11/18 03:55:30;;;;;;;41.97;20.60;;;8.70;99.90;;;;;;5013888;28;20057;-72
2023/11/18 03:57:56;;;;;;;39.58;21.75;;;8.80;99.90;;;;;;5015807;28;20025;-72
2023/11/18 04:00:29;;;;;;;38.28;20.08;;;8.80;99.90;;;;;;5017850;28;20022;-72
2023/11/18 04:02:55;;;;;;;30.17;18.58;;;8.80;99.90;;;;;;5016695;28;20037;-73
2023/11/18 04:05:21;;;;;;;41.03;20.33;;;8.90;99.90;;;;;;5015659;28;20510;-73
2023/11/18 04:07:46;;;;;;;40.08;20.63;;;8.90;99.90;;;;;;5018419;28;20041;-73
2023/11/18 04:10:12;;;;;;;38.22;21.00;;;9.00;99.90;;;;;;5017894;28;20526;-72
2023/11/18 04:12:38;;;;;;;39.95;20.02;;;8.90;99.90;;;;;;5014998;28;20033;-72
2023/11/18 04:15:04;;;;;;;41.92;20.35;;;8.80;99.90;;;;;;5016617;28;20398;-72
2023/11/18 04:17:30;;;;;;;43.75;21.73;;;8.80;99.90;;;;;;5016159;28;20030;-73
2023/11/18 04:19:56;;;;;;;41.30;20.45;;;8.90;99.90;;;;;;5020311;28;20195;-73
2023/11/18 04:22:23;;;;;;;37.75;19.75;;;8.90;99.90;;;;;;5017940;28;20033;-73
2023/11/18 04:24:48;;;;;;;36.88;20.08;;;8.90;99.90;;;;;;5020490;28;20030;-73
2023/11/18 04:27:14;;;;;;;36.58;19.23;;;8.90;99.90;;;;;;5022436;28;21885;-73
2023/11/18 04:29:42;;;;;;;37.72;20.55;;;9.00;99.90;;;;;;5019073;28;20276;-73
2023/11/18 04:32:08;;;;;;;38.55;20.33;;;8.90;99.90;;;;;;5019864;28;20035;-73
2023/11/18 04:34:37;;;;;;;35.88;19.27;;;8.70;99.90;;;;;;5026188;28;20372;-73
2023/11/18 04:37:06;;;;;;;41.13;20.88;;;8.80;99.90;;;;;;5025360;28;20668;-72
2023/11/18 04:39:32;;;;;;;39.53;18.88;;;8.90;99.90;;;;;;5023222;28;20061;-74
2023/11/18 04:41:58;;;;;;;37.05;19.52;;;9.00;99.90;;;;;;5021546;28;20120;-73
2023/11/18 04:44:23;;;;;;;42.88;20.15;;;9.00;99.90;;;;;;5023954;28;20325;-73
2023/11/18 04:46:49;;;;;;;40.38;20.67;;;9.00;99.90;;;;;;5022913;28;20045;-73
2023/11/18 04:49:17;;;;;;;42.35;20.83;;;8.90;99.90;;;;;;5021467;28;20037;-72
2023/11/18 04:51:43;;;;;;;35.47;19.35;;;8.90;99.90;;;;;;5017754;28;20040;-73
2023/11/18 04:54:08;;;;;;;36.30;18.80;;;9.00;99.90;;;;;;5020698;28;20033;-72
2023/11/18 04:56:39;;;;;;;36.35;20.00;;;9.00;99.90;;;;;;5021689;28;20036;-73
2023/11/18 04:59:07;;;;;;;42.22;20.23;;;8.90;99.90;;;;;;5015998;28;20033;-73
2023/11/18 05:01:33;;;;;;;40.95;20.92;;;9.00;99.90;;;;;;5022433;28;20017;-73
2023/11/18 05:04:01;;;;;;;45.45;20.55;;;9.00;99.90;;;;;;5020856;28;20316;-73
2023/11/18 05:06:26;;;;;;;42.70;21.00;;;9.00;99.90;;;;;;5015536;28;20053;-73
2023/11/18 05:08:52;;;;;;;40.38;20.52;;;9.00;99.90;;;;;;5022793;28;20034;-73
2023/11/18 05:11:18;;;;;;;41.50;21.42;;;9.10;99.90;;;;;;5026062;28;20029;-72
2023/11/18 05:13:43;;;;;;;43.75;21.13;;;9.00;99.90;;;;;;5015357;28;20030;-73
2023/11/18 05:16:12;;;;;;;42.45;22.30;;;9.10;99.90;;;;;;5019218;28;20026;-72
2023/11/18 05:18:40;;;;;;;41.25;20.90;;;8.90;99.90;;;;;;5018297;28;20033;-72
2023/11/18 05:21:06;;;;;;;40.33;20.48;;;8.90;99.90;;;;;;5023033;28;20084;-72
2023/11/18 05:23:35;;;;;;;36.70;20.20;;;9.00;99.90;;;;;;5024794;28;20025;-73
2023/11/18 05:26:04;;;;;;;43.33;21.35;;;9.00;99.90;;;;;;5019093;28;20116;-72
2023/11/18 05:28:30;;;;;;;49.13;22.35;;;8.90;99.90;;;;;;5021966;28;20082;-73
2023/11/18 05:30:58;;;;;;;46.63;21.02;;;8.90;99.90;;;;;;5019651;28;20025;-73
2023/11/18 05:33:23;;;;;;;38.22;20.58;;;8.90;99.90;;;;;;5021121;28;20026;-73
2023/11/18 05:35:51;;;;;;;41.88;20.90;;;8.90;99.90;;;;;;5036854;28;20095;-73
2023/11/18 05:38:19;;;;;;;;;;;8.90;99.90;;;;;;5021320;28;20036;-73
2023/11/18 05:40:55;;;;;;;42.08;21.23;;;8.90;99.90;;;;;;5010866;28;19913;-73
2023/11/18 05:43:40;;;;;;;39.25;21.52;;;8.90;99.90;;;;;;5019641;28;20022;-72
2023/11/18 05:49:07;;;;;;;38.30;19.52;;;8.90;99.90;;;;;;5003076;28;20046;-73
2023/11/18 05:51:35;;;;;;;38.55;20.55;;;8.90;99.90;;;;;;5018338;28;20160;-73
2023/11/18 05:54:01;;;;;;;38.85;20.13;;;9.00;99.90;;;;;;5035497;28;20123;-73
2023/11/18 05:56:26;;;;;;;42.88;22.63;;;8.90;99.90;;;;;;5022138;28;20124;-72
2023/11/18 05:58:55;;;;;;;40.70;20.45;;;8.90;99.90;;;;;;5020630;28;20036;-73
2023/11/18 06:01:21;;;;;;;40.92;19.25;;;9.00;99.90;;;;;;5018439;28;20787;-73
2023/11/18 06:03:47;;;;;;;37.42;20.75;;;9.00;99.90;;;;;;5018923;28;20657;-72
2023/11/18 06:06:16;;;;;;;40.35;19.73;;;9.00;99.90;;;;;;5023301;28;20029;-73
2023/11/18 06:08:41;;;;;;;35.33;19.75;;;8.90;99.90;;;;;;5025076;28;20071;-65
2023/11/18 06:11:14;;;;;;;41.17;20.33;;;9.00;99.90;;;;;;5011877;28;20723;-64
2023/11/18 06:13:51;;;;;;;35.33;19.48;;;8.90;99.90;;;;;;5019289;28;20511;-64
2023/11/18 06:16:20;;;;;;;38.95;20.27;;;8.90;99.90;;;;;;5015715;28;20061;-64
2023/11/18 06:18:46;;;;;;;36.75;20.45;;;8.90;99.90;;;;;;5017013;28;20021;-64
2023/11/18 06:21:14;;;;;;;39.97;20.00;;;8.90;99.90;;;;;;5021492;28;20025;-64
2023/11/18 06:23:41;;;;;;;39.70;19.27;;;8.90;99.90;;;;;;5018520;28;20377;-64
2023/11/18 06:26:10;;;;;;;39.30;19.90;;;9.00;99.90;;;;;;5023576;28;20043;-64
2023/11/18 06:28:36;;;;;;;38.75;19.73;;;9.00;99.90;;;;;;5016858;28;20646;-64
2023/11/18 06:31:02;;;;;;;40.28;20.23;;;8.90;99.90;;;;;;5023672;28;20415;-64
2023/11/18 06:33:27;;;;;;;35.13;18.95;;;8.90;99.90;;;;;;5022217;28;20038;-64
2023/11/18 06:35:56;;;;;;;37.00;18.63;;;8.90;99.90;;;;;;5020370;28;20029;-64
2023/11/18 06:38:22;;;;;;;34.28;18.52;;;8.90;99.90;;;;;;5023918;28;20579;-64
2023/11/18 06:40:52;;;;;;;39.40;19.42;;;8.80;99.90;;;;;;5018668;28;20055;-64
2023/11/18 06:43:23;;;;;;;40.97;19.10;;;8.80;99.90;;;;;;5021751;28;20025;-64
2023/11/18 06:45:51;;;;;;;38.35;19.10;;;8.80;99.90;;;;;;5014327;28;20021;-64
2023/11/18 06:48:19;;;;;;;38.03;18.52;;;8.90;99.90;;;;;;5038820;23;20146;-88
2023/11/18 06:50:46;;;;;;;35.20;18.13;;;8.90;99.90;;;;;;5042412;28;20579;-89
2023/11/18 06:53:12;;;;;;;32.88;18.88;;;8.90;99.90;;;;;;5047434;28;20055;-89
2023/11/18 06:55:37;;;;;;;34.20;18.65;;;8.90;99.90;;;;;;5036436;28;20045;-89
2023/11/18 06:58:06;;;;;;;33.25;17.83;;;8.90;99.90;;;;;;5039989;28;22402;-90
2023/11/18 07:00:32;;;;;;;29.55;17.10;;;8.90;99.90;;;;;;5042532;28;20036;-89
2023/11/18 07:02:58;;;;;;;32.83;18.08;;;8.70;99.90;;;;;;5042126;28;20071;-89
2023/11/18 07:05:25;;;;;;;33.83;18.00;;;8.70;99.90;;;;;;5027113;28;20040;-89
2023/11/18 07:07:52;;;;;;;32.22;17.33;;;8.70;99.90;;;;;;4986632;28;86835;-90
2023/11/18 07:10:20;;;;;;;39.25;19.30;;;8.70;99.90;;;;;;5041704;28;20095;-89
2023/11/18 07:12:47;;;;;;;;;;;8.70;99.90;;;;;;5041765;28;20104;-89
2023/11/18 07:15:13;;;;;;;40.30;19.07;;;8.70;99.90;;;;;;5030647;28;19912;-90
2023/11/18 07:17:39;;;;;;;45.63;20.15;;;8.70;99.90;;;;;;5047970;28;20564;-89
2023/11/18 07:20:11;;;;;;;42.15;19.15;;;8.60;99.90;;;;;;5040762;28;20079;-89
2023/11/18 07:22:40;;;;;;;38.58;19.50;;;8.60;99.90;;;;;;5027263;28;20095;-88
2023/11/18 07:25:07;;;;;;;43.35;19.55;;;8.60;99.90;;;;;;5043964;28;20036;-90
2023/11/18 07:27:36;;;;;;;40.43;20.47;;;8.50;99.90;;;;;;5058070;28;20102;-87
2023/11/18 07:30:03;;;;;;;41.42;20.50;;;8.50;99.90;;;;;;5026569;28;20373;-89
2023/11/18 07:32:29;;;;;;;46.38;20.98;;;8.60;99.90;;;;;;5057000;28;20051;-90
2023/11/18 07:34:55;;;;;;;50.13;22.25;;;8.60;99.90;;;;;;5044349;28;20036;-90
2023/11/18 07:37:22;;;;;;;47.78;23.08;;;8.60;99.90;;;;;;5011344;28;20036;-89
2023/11/18 07:39:48;;;;;;;49.90;22.58;;;8.70;99.90;;;;;;5045279;28;20031;-90
2023/11/18 07:42:15;;;;;;;46.05;21.17;;;8.70;99.90;;;;;;5045015;28;20021;-90
2023/11/18 07:44:41;;;;;;;48.28;21.60;;;8.70;99.90;;;;;;5045483;28;20040;-89
2023/11/18 07:47:06;;;;;;;42.90;20.58;;;8.70;99.90;;;;;;5058314;28;20024;-89
2023/11/18 07:49:35;;;;;;;46.42;21.90;;;8.70;99.90;;;;;;5044069;28;20068;-89
2023/11/18 07:52:05;;;;;;;46.85;20.52;;;8.70;99.90;;;;;;5044737;28;20412;-90
2023/11/18 07:54:31;;;;;;;49.60;21.15;;;8.70;99.90;;;;;;5043378;28;20044;-90
2023/11/18 07:56:59;;;;;;;54.00;22.75;;;8.80;99.90;;;;;;5046592;28;20029;-90
2023/11/18 07:59:26;;;;;;;47.42;22.42;;;8.80;99.90;;;;;;5040758;28;20036;-91
2023/11/18 08:01:53;;;;;;;49.63;22.60;;;8.80;99.90;;;;;;5042329;28;20028;-90
2023/11/18 08:04:20;;;;;;;49.92;22.33;;;8.70;99.90;;;;;;5047467;28;20037;-89
2023/11/18 08:06:47;;;;;;;51.67;23.52;;;8.70;99.90;;;;;;5045624;28;20033;-90
2023/11/18 08:09:14;;;;;;;51.42;23.67;;;8.70;99.90;;;;;;5044233;28;20029;-89
2023/11/18 08:11:41;;;;;;;48.53;22.33;;;8.70;99.90;;;;;;5047602;28;22249;-89
2023/11/18 08:14:13;;;;;;;46.03;22.27;;;8.80;99.90;;;;;;5050185;28;20123;-90
2023/11/18 08:16:41;;;;;;;50.17;21.85;;;8.80;99.90;;;;;;5044991;28;20282;-89
2023/11/18 08:19:08;;;;;;;47.45;22.42;;;8.80;99.90;;;;;;5044046;28;20017;-90
2023/11/18 08:21:39;;;;;;;50.58;22.55;;;8.80;99.90;;;;;;5061172;28;20075;-89
2023/11/18 08:24:08;;;;;;;51.58;23.48;;;8.90;99.90;;;;;;5038576;28;20033;-88
2023/11/18 08:26:37;;;;;;;50.58;23.33;;;8.80;99.90;;;;;;5046535;28;20025;-90
2023/11/18 08:29:03;;;;;;;56.63;23.85;;;8.70;99.90;;;;;;5057766;28;20116;-89
2023/11/18 08:31:28;;;;;;;49.65;21.38;;;8.80;99.90;;;;;;5058930;28;20132;-90
2023/11/18 08:33:54;;;;;;;54.67;23.52;;;8.60;99.90;;;;;;5043198;28;20029;-90
2023/11/18 08:36:26;;;;;;;54.55;23.08;;;8.70;99.90;;;;;;5044977;28;20060;-90
2023/11/18 08:38:51;;;;;;;56.05;24.23;;;8.70;99.90;;;;;;5039283;28;20029;-91
2023/11/18 08:41:20;;;;;;;62.15;23.50;;;8.80;99.90;;;;;;5038437;28;20035;-90
2023/11/18 08:43:48;;;;;;;;;;;8.90;99.90;;;;;;5044057;28;20033;-90
2023/11/18 08:46:15;;;;;;;49.75;21.63;;;8.90;99.90;;;;;;5062741;28;20510;-91
2023/11/18 08:48:40;;;;;;;55.17;23.05;;;8.80;99.90;;;;;;5048256;28;20078;-90
2023/11/18 08:51:12;;;;;;;52.65;22.95;;;8.80;99.90;;;;;;5045958;28;20037;-89
2023/11/18 08:53:40;;;;;;;57.63;24.00;;;8.70;99.90;;;;;;5047539;28;20033;-90
2023/11/18 08:56:13;;;;;;;54.47;22.15;;;8.70;99.90;;;;;;5061003;28;20029;-90
2023/11/18 08:58:44;;;;;;;59.63;23.35;;;8.70;99.90;;;;;;5060068;28;20034;-91
2023/11/18 09:01:16;;;;;;;57.88;22.33;;;8.70;99.90;;;;;;5046413;28;20021;-91
2023/11/18 09:03:51;;;;;;;55.83;22.38;;;8.80;99.90;;;;;;5046142;28;20399;-89
2023/11/18 09:06:17;;;;;;;57.30;22.60;;;8.90;99.90;;;;;;5048193;28;20028;-91
2023/11/18 09:08:44;;;;;;;57.42;22.88;;;8.90;99.90;;;;;;5049886;28;20029;-90
2023/11/18 09:11:16;;;;;;;57.63;23.80;;;8.90;99.90;;;;;;5048334;28;20365;-91
2023/11/18 09:13:53;;;;;;;55.25;22.00;;;8.90;99.90;;;;;;5060091;28;20061;-91
2023/11/18 09:16:22;;;;;;;54.30;22.35;;;8.90;99.90;;;;;;5060554;28;20028;-91
2023/11/18 09:18:48;;;;;;;50.88;22.48;;;8.90;99.90;;;;;;5044610;28;20021;-91
2023/11/18 09:21:14;;;;;;;56.92;23.02;;;8.90;99.90;;;;;;5048982;28;20040;-91
2023/11/18 09:23:41;;;;;;;61.08;23.52;;;8.80;99.90;;;;;;5048297;28;20029;-92
2023/11/18 09:26:10;;;;;;;71.45;22.65;;;8.90;99.90;;;;;;5067229;28;20400;-92
2023/11/18 09:28:36;;;;;;;58.72;23.02;;;8.90;99.90;;;;;;5044476;28;20511;-92
2023/11/18 09:31:05;;;;;;;82.85;25.60;;;9.00;99.90;;;;;;5035100;28;20029;-90
2023/11/18 09:33:32;;;;;;;57.42;24.48;;;9.10;99.90;;;;;;5043305;28;20762;-90
2023/11/18 09:36:03;;;;;;;57.00;23.17;;;9.20;99.90;;;;;;5047883;28;20033;-91
2023/11/18 09:38:35;;;;;;;59.70;23.20;;;9.10;99.90;;;;;;5048152;28;20021;-89
2023/11/18 09:41:07;;;;;;;56.67;22.70;;;9.20;99.90;;;;;;5047341;28;20555;-92
2023/11/18 09:43:42;;;;;;;52.92;20.42;;;9.10;99.90;;;;;;5061438;28;20083;-89
2023/11/18 09:46:13;;;;;;;52.65;21.17;;;9.00;99.90;;;;;;5047264;28;20032;-91
2023/11/18 09:48:42;;;;;;;56.10;21.70;;;9.00;99.90;;;;;;5044620;28;20043;-91
2023/11/18 09:51:13;;;;;;;53.17;20.63;;;9.10;99.90;;;;;;5046402;28;20079;-91
2023/11/18 09:53:42;;;;;;;45.20;20.17;;;9.00;99.90;;;;;;5061540;28;20037;-92
2023/11/18 09:56:18;;;;;;;;;;;8.90;99.90;;;;;;5032524;28;20144;-91
2023/11/18 09:58:54;;;;;;;48.60;18.75;;;8.80;99.90;;;;;;5048417;28;19915;-92
2023/11/18 10:01:22;;;;;;;51.08;19.80;;;8.70;99.90;;;;;;5045714;28;20029;-92
2023/11/18 10:03:48;;;;;;;50.08;21.13;;;8.60;99.90;;;;;;5063451;28;20021;-91
2023/11/18 10:06:15;;;;;;;49.28;19.38;;;8.70;99.90;;;;;;5048211;28;20059;-90
2023/11/18 10:08:45;;;;;;;51.67;19.65;;;8.80;99.90;;;;;;5048011;28;20124;-91
2023/11/18 10:11:13;;;;;;;50.38;18.50;;;8.80;99.90;;;;;;5051837;28;20171;-92
2023/11/18 10:13:40;;;;;;;51.55;20.25;;;8.90;99.90;;;;;;5050323;28;20108;-92
2023/11/18 10:16:09;;;;;;;47.60;17.27;;;9.10;99.90;;;;;;5059526;28;20041;-88
2023/11/18 10:18:38;;;;;;;50.58;18.42;;;9.00;99.90;;;;;;5045792;28;20043;-91
2023/11/18 10:21:04;;;;;;;56.03;19.48;;;8.90;99.90;;;;;;5051144;28;20057;-92
2023/11/18 10:23:33;;;;;;;53.00;17.75;;;9.20;99.90;;;;;;5047939;28;20623;-92
2023/11/18 10:26:03;;;;;;;46.70;17.58;;;9.30;99.90;;;;;;5048675;28;20040;-91
2023/11/18 10:28:37;;;;;;;49.05;16.80;;;9.40;99.90;;;;;;5048132;28;20033;-90
2023/11/18 10:31:09;;;;;;;39.60;15.95;;;9.50;99.90;;;;;;5054016;28;20053;-90
2023/11/18 10:33:44;;;;;;;40.95;16.20;;;9.60;99.90;;;;;;5046754;28;20079;-91
2023/11/18 10:36:23;;;;;;;33.30;13.45;;;9.70;99.90;;;;;;5047079;28;20033;-91
2023/11/18 10:38:51;;;;;;;29.73;11.50;;;9.80;99.90;;;;;;5064156;28;20025;-92
2023/11/18 10:41:19;;;;;;;29.23;12.65;;;9.70;99.90;;;;;;5049739;28;20025;-92
2023/11/18 10:43:45;;;;;;;28.67;12.10;;;9.70;99.90;;;;;;5051746;28;20051;-91
2023/11/18 10:46:14;;;;;;;28.55;11.35;;;9.70;99.90;;;;;;5048307;28;21209;-91
2023/11/18 10:48:50;;;;;;;26.13;11.00;;;9.80;99.90;;;;;;5051432;28;20044;-92
2023/11/18 10:51:26;;;;;;;28.17;12.63;;;9.60;99.90;;;;;;5061738;28;20060;-91
2023/11/18 10:53:53;;;;;;;28.15;12.05;;;9.70;99.90;;;;;;5050782;28;20032;-90
2023/11/18 10:56:29;;;;;;;24.65;11.07;;;9.80;99.90;;;;;;5048234;28;20025;-90
2023/11/18 10:59:07;;;;;;;24.20;10.43;;;9.70;99.90;;;;;;5039938;28;20091;-89
2023/11/18 11:01:33;;;;;;;;;;;9.70;99.90;;;;;;5060495;28;20091;-90
2023/11/18 11:03:59;;;;;;;25.90;10.30;;;9.60;99.90;;;;;;5040186;28;19908;-90
2023/11/18 11:06:30;;;;;;;23.20;9.70;;;9.60;99.90;;;;;;5041643;28;20068;-91
2023/11/18 11:08:58;;;;;;;25.45;9.30;;;9.50;99.90;;;;;;5043738;28;20033;-92
2023/11/18 11:11:26;;;;;;;19.63;8.88;;;9.60;99.90;;;;;;5049064;28;20446;-90
2023/11/18 11:14:03;;;;;;;24.40;9.30;;;9.50;99.90;;;;;;5039800;28;20037;-91
2023/11/18 11:16:44;;;;;;;21.02;8.23;;;9.60;99.90;;;;;;5046736;28;20037;-91
2023/11/18 11:19:29;;;;;;;21.75;8.85;;;9.60;99.90;;;;;;5047435;28;20021;-90
2023/11/18 11:22:21;;;;;;;18.92;8.05;;;9.60;99.90;;;;;;5063946;28;20040;-91
2023/11/18 11:25:21;;;;;;;17.88;7.60;;;9.60;99.90;;;;;;5061084;28;20021;-92
2023/11/18 11:27:52;;;;;;;14.15;6.57;;;9.60;99.90;;;;;;5042761;28;20037;-91
2023/11/18 11:30:18;;;;;;;18.70;6.45;;;9.60;99.90;;;;;;5061075;28;20021;-91
2023/11/18 11:33:02;;;;;;;13.73;6.13;;;9.60;99.90;;;;;;5042846;28;20067;-91
2023/11/18 11:35:37;;;;;;;18.33;6.30;;;9.60;99.90;;;;;;5028206;28;20645;-90
2023/11/18 11:38:09;;;;;;;12.93;5.60;;;9.70;99.90;;;;;;5042222;28;20109;-92
2023/11/18 11:40:39;;;;;;;12.95;5.40;;;9.70;99.90;;;;;;5061330;28;20033;-88
2023/11/18 11:43:15;;;;;;;12.15;4.95;;;9.70;99.90;;;;;;5039388;28;20048;-90
2023/11/18 11:45:42;;;;;;;15.80;5.43;;;9.70;99.90;;;;;;5044455;28;20029;-91
2023/11/18 11:48:27;;;;;;;12.53;4.53;;;9.60;99.90;;;;;;5045102;28;20025;-90
2023/11/18 11:51:14;;;;;;;10.95;5.35;;;9.70;99.90;;;;;;5045287;28;20033;-91
2023/11/18 11:53:45;;;;;;;10.10;4.47;;;9.70;99.90;;;;;;5045061;28;20036;-91
2023/11/18 11:56:19;;;;;;;16.42;5.75;;;9.70;99.90;;;;;;5044717;28;20037;-91
2023/11/18 11:58:45;;;;;;;12.57;5.10;;;9.60;99.90;;;;;;5046471;28;20021;-91
2023/11/18 12:01:34;;;;;;;15.13;4.97;;;9.60;99.90;;;;;;5046045;28;20017;-90
2023/11/18 12:04:20;;;;;;;19.30;6.65;;;9.70;99.90;;;;;;5065316;28;20048;-90
2023/11/18 12:06:47;;;;;;;11.38;5.32;;;9.80;99.90;;;;;;5061007;28;20075;-91
2023/11/18 12:09:19;;;;;;;16.15;6.13;;;9.80;99.90;;;;;;5066086;28;20025;-89
2023/11/18 12:11:48;;;;;;;11.98;5.22;;;9.80;99.90;;;;;;5045876;28;20079;-91
2023/11/18 12:19:56;;;;;;;14.85;5.63;;;9.70;99.90;;;;;;5049320;28;20030;-91
2023/11/18 12:22:24;;;;;;;14.50;6.38;;;9.70;99.90;;;;;;5047004;28;20025;-90
2023/11/18 12:24:58;;;;;;;17.08;5.55;;;9.70;99.90;;;;;;5045940;28;20093;-90
2023/11/18 12:27:51;;;;;;;13.38;6.07;;;9.60;99.90;;;;;;5040312;28;20040;-91
2023/11/18 12:30:22;;;;;;;12.68;5.75;;;9.60;99.90;;;;;;5046866;28;20033;-91
2023/11/18 12:33:05;;;;;;;11.63;5.25;;;9.60;99.90;;;;;;5046309;28;20021;-92
2023/11/18 12:35:49;;;;;;;10.77;5.45;;;9.50;99.90;;;;;;5048507;28;20083;-90
2023/11/18 12:38:57;;;;;;;10.95;5.32;;;9.50;99.90;;;;;;5043147;28;20033;-91
2023/11/18 12:41:40;;;;;;;12.15;5.60;;;9.60;99.90;;;;;;5044853;28;20022;-90
2023/11/18 12:44:41;;;;;;;11.88;5.20;;;9.50;99.90;;;;;;5050570;28;20025;-91
2023/11/18 12:47:14;;;;;;;12.88;5.38;;;9.50;99.90;;;;;;4981853;28;20046;-91
2023/11/18 12:49:54;;;;;;;10.75;4.47;;;9.60;99.90;;;;;;4993180;28;20037;-91
2023/11/18 12:52:27;;;;;;;11.93;5.50;;;9.60;99.90;;;;;;4975451;28;20034;-91
2023/11/18 12:54:58;;;;;;;14.43;5.78;;;9.60;99.90;;;;;;4980615;28;20121;-92
2023/11/18 12:57:31;;;;;;;10.23;5.38;;;9.60;99.90;;;;;;5000149;28;20110;-92
2023/11/18 13:00:00;;;;;;;10.00;5.10;;;9.60;99.90;;;;;;4977987;28;20036;-91
2023/11/18 13:02:26;;;;;;;11.00;5.70;;;9.60;99.90;;;;;;4999135;28;20038;-89